Pagrindinis puslapis
METAR-TAF:

METAR-TAF

Oro uostai :

Hua Hin, Tailandas

platuma: 12-35N, ilguma: 099-57E, Aukštis: 5 m

Dabartinis oras

Ataskaita buvo paskelbta 59 minutes, ne 01:00 UTC
Ramus vėjas
Temperatūra 27°C
Drėgmė 66%
Slėgis 1012 hPa
Matomumas: 9000 m

METAR: VTPH 130100Z 00000KT 9000 NSC 27/20 Q1012 NOSIG

Laikas: 08:59 (01:59 UTC)

Prognozė

Ataskaita buvo paskelbta 2 valandos ir 59 minutes, ne 23:00 UTC
Prognozė galioja nuo 13 metu 00 UTC su 13 metu 24 UTC
Vėjas kt iš Šiaurės
Matomumas: 8000 m
Mažai debesys ne aukštis 3000 ft
Tapsmas
nuo 13 metu 02 UTC su 13 metu 04 UTC
Vėjas 8 kt iš Rytų/Šiaurės Rytų
Tapsmas
nuo 13 metu 14 UTC su 13 metu 16 UTC
Vėjas kt iš Šiaurės

TAF: VTPH 122300Z 1300/1324 00000KT 8000 FEW030 BECMG 1302/1304 06008KT BECMG 1314/1316 00000KT

Orai ataskaitas ir orų prognozės (METAR, TAF).

turimą stotys yra geltonos ir raudonos taškus žemėlapyje.

Perkelti pele per norėdami pamatyti stoties vardą.

Tada spustelėkite, norėdami matyti oro stebėjimo ir prognozės.

Norėdami pakeisti žemėlapį: spustelėkite ant žalios mygtukų su juodo kryžiaus žemyn,; žalią mygtuką su brūkšneliu, jei norite nutolinti; arba žalių rodyklių gretimoms žemėlapius.


METAR-TAF: